British Envoy — MNAN4 — position and weather

sailwx.info

Track history (hours):
 
Tides and Currents Weather Stations Pressure Air Temp Water Temp Dewpoint Dewpoint Depression Visibility Wind Speed Wind Dir Waves Ship Positions

British Envoy

Last reported at 2016-May-23 20:24 UTC. Time now 2016-May-24 11:55 UTC.
Position S 30°01' E 031°10'.

Length 184.2 m; beam 27.4 m; draft 11.3 m.

Type: Tanker. MMSI: 235011280.

Date/timePositionNaut miles runAvg speedWind from/ knotsBaromVisibWave heightAir tempDewpointWater temp
2016-May-23 20:24S 30°01' E 031°10'1214.2
2016-May-23 19:33S 29°50' E 031°12'2 1.8
2016-May-23 18:31S 29°48' E 031°11'0 0.0
2016-May-23 17:31S 29°48' E 031°11'0 0.0
2016-May-23 16:31S 29°48' E 031°11'0 0.0
2016-May-23 15:31S 29°48' E 031°11'0 0.0
2016-May-23 14:31S 29°48' E 031°11'5 8.7
2016-May-23 14:00S 29°48' E 031°06'5 9.6 090 / 161017.410.8 1.525.018.822.0
2016-May-23 13:31S 29°48' E 031°11'0 0.0
2016-May-23 12:31S 29°48' E 031°11'0 0.0
2016-May-23 11:31S 29°48' E 031°11'0 0.0
2016-May-23 10:31S 29°48' E 031°11'0 0.0
2016-May-23 09:31S 29°48' E 031°11'0 0.0
2016-May-23 08:31S 29°48' E 031°11'0 0.0
2016-May-23 07:31S 29°48' E 031°11'0 0.1
2016-May-23 06:31S 29°48' E 031°11'0 0.0
2016-May-23 05:31S 29°48' E 031°11'10 0.2
2016-May-21 11:23S 29°53' E 031°02'0 0.0
2016-May-21 10:32S 29°53' E 031°02'0 0.0
2016-May-21 09:29S 29°53' E 031°02'0 0.0
2016-May-21 08:32S 29°53' E 031°02'0 0.0
2016-May-21 07:32S 29°53' E 031°02'0 0.0
2016-May-21 06:32S 29°53' E 031°02'0 0.0
2016-May-21 05:32S 29°53' E 031°02'0 0.0
2016-May-21 04:32S 29°53' E 031°02'0 0.0
2016-May-21 03:32S 29°53' E 031°02'0 0.0
2016-May-21 02:32S 29°53' E 031°02'0 0.0
2016-May-21 01:32S 29°53' E 031°02'0 0.0
2016-May-21 00:29S 29°53' E 031°02'0 0.0
2016-May-20 23:32S 29°53' E 031°02'0 0.0
2016-May-20 22:32S 29°53' E 031°02'0 0.0
2016-May-20 21:32S 29°53' E 031°02'0 0.0
2016-May-20 20:32S 29°53' E 031°02'0 0.0
2016-May-20 19:33S 29°53' E 031°02'5 5.0
2016-May-20 18:33S 29°49' E 031°05'2 2.0
2016-May-20 17:33S 29°49' E 031°07'4 3.5
2016-May-20 16:31S 29°47' E 031°11'0 0.0
2016-May-20 15:31S 29°47' E 031°11'0 0.0
2016-May-20 14:31S 29°47' E 031°11'0 0.0
2016-May-20 13:31S 29°47' E 031°11'0 0.0
2016-May-20 12:31S 29°47' E 031°11'0 0.0
2016-May-20 11:31S 29°47' E 031°11'1 0.5
2016-May-20 10:33S 29°47' E 031°12'2 2.1
2016-May-20 09:33S 29°48' E 031°10'2 1.8
2016-May-20 08:33S 29°49' E 031°12'6 6.0
2016-May-20 07:33S 29°54' E 031°13'1010.4
2016-May-20 06:33S 30°05' E 031°14'1413.8
2016-May-20 05:33S 30°18' E 031°11'1313.4
2016-May-20 04:33S 30°30' E 031°04'31710.4
2016-May-18 22:00S 34°18' E 026°42'41912.9 230 / 151013.8 1.517.514.9
2016-May-17 13:21S 34°27' E 018°14'1012.9
2016-May-17 12:33S 34°17' E 018°10'1413.4
2016-May-17 11:29S 34°03' E 018°11'1313.7
2016-May-17 10:33S 33°52' E 018°20'6 6.2
2016-May-17 09:33S 33°55' E 018°26'0 0.1
2016-May-17 08:33S 33°55' E 018°27'0 0.0
2016-May-17 07:33S 33°55' E 018°27'0 0.0
2016-May-17 06:33S 33°55' E 018°27'0 0.0
2016-May-17 05:30S 33°55' E 018°27'0 0.0
2016-May-17 04:33S 33°55' E 018°27'0 0.0
2016-May-17 03:33S 33°55' E 018°27'0 0.0
2016-May-17 02:30S 33°55' E 018°27'0 0.0
2016-May-17 01:33S 33°55' E 018°27'0 0.0
2016-May-17 00:33S 33°55' E 018°27'0 0.0
2016-May-16 23:33S 33°55' E 018°27'0 0.0
2016-May-16 22:33S 33°55' E 018°27'0 0.0
2016-May-16 21:33S 33°55' E 018°27'0 0.0
2016-May-16 20:33S 33°55' E 018°27'0 0.0
2016-May-16 19:33S 33°55' E 018°27'0 0.0
2016-May-16 18:33S 33°55' E 018°27'0 0.0
2016-May-16 17:33S 33°55' E 018°27'0 0.0
2016-May-16 16:33S 33°55' E 018°27'0 0.0
2016-May-16 15:33S 33°55' E 018°27'0 0.0
2016-May-16 14:33S 33°55' E 018°27'0 0.0
2016-May-16 13:33S 33°55' E 018°27'0 0.0
2016-May-16 12:33S 33°55' E 018°27'0 0.0
2016-May-16 11:33S 33°55' E 018°27'0 0.0
2016-May-16 10:33S 33°55' E 018°27'0 0.0
2016-May-16 09:33S 33°55' E 018°27'0 0.0
2016-May-16 08:33S 33°55' E 018°27'0 0.0
2016-May-16 07:33S 33°55' E 018°27'0 0.0
2016-May-16 06:33S 33°55' E 018°27'0 0.0
2016-May-16 05:33S 33°55' E 018°27'0 0.0
2016-May-16 04:33S 33°55' E 018°27'0 0.0
2016-May-16 03:33S 33°55' E 018°27'0 0.0
2016-May-16 02:33S 33°55' E 018°27'0 0.0
2016-May-16 01:33S 33°55' E 018°27'0 0.0
2016-May-16 00:33S 33°55' E 018°27'0 0.0
2016-May-15 23:33S 33°55' E 018°27'0 0.0
2016-May-15 22:33S 33°55' E 018°27'0 0.0
2016-May-15 21:33S 33°55' E 018°27'0 0.0
2016-May-15 20:33S 33°55' E 018°27'0 0.0
2016-May-15 19:33S 33°55' E 018°27'0 0.0
2016-May-15 18:33S 33°55' E 018°27'0 0.0
2016-May-15 17:33S 33°55' E 018°27'0 0.0
2016-May-15 16:33S 33°55' E 018°27'0 0.0
2016-May-15 15:33S 33°55' E 018°27'0 0.0
2016-May-15 14:33S 33°55' E 018°27'0 0.0
2016-May-15 13:33S 33°55' E 018°27'0 0.0
2016-May-15 12:33S 33°55' E 018°27'0 0.0
2016-May-15 11:33S 33°55' E 018°27'0 0.0
2016-May-15 10:33S 33°55' E 018°27'0 0.0
2016-May-15 09:33S 33°55' E 018°27'0 0.0
2016-May-15 08:33S 33°55' E 018°27'0 0.0
2016-May-15 07:33S 33°55' E 018°27'0 0.3
2016-May-15 06:33S 33°55' E 018°26'4 4.1
2016-May-15 05:33S 33°51' E 018°26'0 0.3
2016-May-15 04:33S 33°51' E 018°26'0 0.0
2016-May-15 03:33S 33°50' E 018°26'0 0.0
2016-May-15 02:33S 33°51' E 018°26'0 0.0
2016-May-15 01:33S 33°51' E 018°26'0 0.0
2016-May-15 00:33S 33°51' E 018°26'0 0.0
2016-May-14 23:33S 33°51' E 018°26'0 0.0
2016-May-14 22:33S 33°51' E 018°26'0 0.0
2016-May-14 21:33S 33°51' E 018°26'0 0.0
2016-May-14 20:33S 33°51' E 018°26'0 0.0
2016-May-14 19:33S 33°51' E 018°26'0 0.1
2016-May-14 18:33S 33°51' E 018°26'0 0.2
2016-May-14 17:33S 33°50' E 018°26'7 7.2
2016-May-14 16:33S 33°55' E 018°19'1512.3
2016-May-14 15:20S 34°08' E 018°12'1113.7
2016-May-14 14:33S 34°19' E 018°12'  
Track history (hours):
 
Tides and Currents Weather Stations Pressure Air Temp Water Temp Dewpoint Dewpoint Depression Visibility Wind Speed Wind Dir Waves Ship Positions

British Envoy

Last reported at 2016-May-23 20:24 UTC. Time now 2016-May-24 11:55 UTC.
Position S 30°01' E 031°10'.

Length 184.2 m; beam 27.4 m; draft 11.3 m.

Type: Tanker. MMSI: 235011280.

Date/timePositionNaut miles runAvg speedWind from/ knotsBaromVisibWave heightAir tempDewpointWater temp
2016-May-23 20:24S 30°01' E 031°10'1214.2
2016-May-23 19:33S 29°50' E 031°12'2 1.8
2016-May-23 18:31S 29°48' E 031°11'0 0.0
2016-May-23 17:31S 29°48' E 031°11'0 0.0
2016-May-23 16:31S 29°48' E 031°11'0 0.0
2016-May-23 15:31S 29°48' E 031°11'0 0.0
2016-May-23 14:31S 29°48' E 031°11'5 8.7
2016-May-23 14:00S 29°48' E 031°06'5 9.6 090 / 161017.410.8 1.525.018.822.0
2016-May-23 13:31S 29°48' E 031°11'0 0.0
2016-May-23 12:31S 29°48' E 031°11'0 0.0
2016-May-23 11:31S 29°48' E 031°11'0 0.0
2016-May-23 10:31S 29°48' E 031°11'0 0.0
2016-May-23 09:31S 29°48' E 031°11'0 0.0
2016-May-23 08:31S 29°48' E 031°11'0 0.0
2016-May-23 07:31S 29°48' E 031°11'0 0.1
2016-May-23 06:31S 29°48' E 031°11'0 0.0
2016-May-23 05:31S 29°48' E 031°11'10 0.2
2016-May-21 11:23S 29°53' E 031°02'0 0.0
2016-May-21 10:32S 29°53' E 031°02'0 0.0
2016-May-21 09:29S 29°53' E 031°02'0 0.0
2016-May-21 08:32S 29°53' E 031°02'0 0.0
2016-May-21 07:32S 29°53' E 031°02'0 0.0
2016-May-21 06:32S 29°53' E 031°02'0 0.0
2016-May-21 05:32S 29°53' E 031°02'0 0.0
2016-May-21 04:32S 29°53' E 031°02'0 0.0
2016-May-21 03:32S 29°53' E 031°02'0 0.0
2016-May-21 02:32S 29°53' E 031°02'0 0.0
2016-May-21 01:32S 29°53' E 031°02'0 0.0
2016-May-21 00:29S 29°53' E 031°02'0 0.0
2016-May-20 23:32S 29°53' E 031°02'0 0.0
2016-May-20 22:32S 29°53' E 031°02'0 0.0
2016-May-20 21:32S 29°53' E 031°02'0 0.0
2016-May-20 20:32S 29°53' E 031°02'0 0.0
2016-May-20 19:33S 29°53' E 031°02'5 5.0
2016-May-20 18:33S 29°49' E 031°05'2 2.0
2016-May-20 17:33S 29°49' E 031°07'4 3.5
2016-May-20 16:31S 29°47' E 031°11'0 0.0
2016-May-20 15:31S 29°47' E 031°11'0 0.0
2016-May-20 14:31S 29°47' E 031°11'0 0.0
2016-May-20 13:31S 29°47' E 031°11'0 0.0
2016-May-20 12:31S 29°47' E 031°11'0 0.0
2016-May-20 11:31S 29°47' E 031°11'1 0.5
2016-May-20 10:33S 29°47' E 031°12'2 2.1
2016-May-20 09:33S 29°48' E 031°10'2 1.8
2016-May-20 08:33S 29°49' E 031°12'6 6.0
2016-May-20 07:33S 29°54' E 031°13'1010.4
2016-May-20 06:33S 30°05' E 031°14'1413.8
2016-May-20 05:33S 30°18' E 031°11'1313.4
2016-May-20 04:33S 30°30' E 031°04'31710.4
2016-May-18 22:00S 34°18' E 026°42'41912.9 230 / 151013.8 1.517.514.9
2016-May-17 13:21S 34°27' E 018°14'1012.9
2016-May-17 12:33S 34°17' E 018°10'1413.4
2016-May-17 11:29S 34°03' E 018°11'1313.7
2016-May-17 10:33S 33°52' E 018°20'6 6.2
2016-May-17 09:33S 33°55' E 018°26'0 0.1
2016-May-17 08:33S 33°55' E 018°27'0 0.0
2016-May-17 07:33S 33°55' E 018°27'0 0.0
2016-May-17 06:33S 33°55' E 018°27'0 0.0
2016-May-17 05:30S 33°55' E 018°27'0 0.0
2016-May-17 04:33S 33°55' E 018°27'0 0.0
2016-May-17 03:33S 33°55' E 018°27'0 0.0
2016-May-17 02:30S 33°55' E 018°27'0 0.0
2016-May-17 01:33S 33°55' E 018°27'0 0.0
2016-May-17 00:33S 33°55' E 018°27'0 0.0
2016-May-16 23:33S 33°55' E 018°27'0 0.0
2016-May-16 22:33S 33°55' E 018°27'0 0.0
2016-May-16 21:33S 33°55' E 018°27'0 0.0
2016-May-16 20:33S 33°55' E 018°27'0 0.0
2016-May-16 19:33S 33°55' E 018°27'0 0.0
2016-May-16 18:33S 33°55' E 018°27'0 0.0
2016-May-16 17:33S 33°55' E 018°27'0 0.0
2016-May-16 16:33S 33°55' E 018°27'0 0.0
2016-May-16 15:33S 33°55' E 018°27'0 0.0
2016-May-16 14:33S 33°55' E 018°27'0 0.0
2016-May-16 13:33S 33°55' E 018°27'0 0.0
2016-May-16 12:33S 33°55' E 018°27'0 0.0
2016-May-16 11:33S 33°55' E 018°27'0 0.0
2016-May-16 10:33S 33°55' E 018°27'0 0.0
2016-May-16 09:33S 33°55' E 018°27'0 0.0
2016-May-16 08:33S 33°55' E 018°27'0 0.0
2016-May-16 07:33S 33°55' E 018°27'0 0.0
2016-May-16 06:33S 33°55' E 018°27'0 0.0
2016-May-16 05:33S 33°55' E 018°27'0 0.0
2016-May-16 04:33S 33°55' E 018°27'0 0.0
2016-May-16 03:33S 33°55' E 018°27'0 0.0
2016-May-16 02:33S 33°55' E 018°27'0 0.0
2016-May-16 01:33S 33°55' E 018°27'0 0.0
2016-May-16 00:33S 33°55' E 018°27'0 0.0
2016-May-15 23:33S 33°55' E 018°27'0 0.0
2016-May-15 22:33S 33°55' E 018°27'0 0.0
2016-May-15 21:33S 33°55' E 018°27'0 0.0
2016-May-15 20:33S 33°55' E 018°27'0 0.0
2016-May-15 19:33S 33°55' E 018°27'0 0.0
2016-May-15 18:33S 33°55' E 018°27'0 0.0
2016-May-15 17:33S 33°55' E 018°27'0 0.0
2016-May-15 16:33S 33°55' E 018°27'0 0.0
2016-May-15 15:33S 33°55' E 018°27'0 0.0
2016-May-15 14:33S 33°55' E 018°27'0 0.0
2016-May-15 13:33S 33°55' E 018°27'0 0.0
2016-May-15 12:33S 33°55' E 018°27'0 0.0
2016-May-15 11:33S 33°55' E 018°27'0 0.0
2016-May-15 10:33S 33°55' E 018°27'0 0.0
2016-May-15 09:33S 33°55' E 018°27'0 0.0
2016-May-15 08:33S 33°55' E 018°27'0 0.0
2016-May-15 07:33S 33°55' E 018°27'0 0.3
2016-May-15 06:33S 33°55' E 018°26'4 4.1
2016-May-15 05:33S 33°51' E 018°26'0 0.3
2016-May-15 04:33S 33°51' E 018°26'0 0.0
2016-May-15 03:33S 33°50' E 018°26'0 0.0
2016-May-15 02:33S 33°51' E 018°26'0 0.0
2016-May-15 01:33S 33°51' E 018°26'0 0.0
2016-May-15 00:33S 33°51' E 018°26'0 0.0
2016-May-14 23:33S 33°51' E 018°26'0 0.0
2016-May-14 22:33S 33°51' E 018°26'0 0.0
2016-May-14 21:33S 33°51' E 018°26'0 0.0
2016-May-14 20:33S 33°51' E 018°26'0 0.0
2016-May-14 19:33S 33°51' E 018°26'0 0.1
2016-May-14 18:33S 33°51' E 018°26'0 0.2
2016-May-14 17:33S 33°50' E 018°26'7 7.2
2016-May-14 16:33S 33°55' E 018°19'1512.3
2016-May-14 15:20S 34°08' E 018°12'1113.7
2016-May-14 14:33S 34°19' E 018°12'  

Dump ship's entire track history